Station: Roxby Downs  

  Atmospheric Gas Attenuation - ITU Rec 676-11   ----------------- dB/100km -----------------
Date Time Temp RH % AH g/m3 Dew Point Wind Direction Speed kph Gust kph Barometer mB Rainfall Since 9am 24GHz 47GHz 76GHz 122GHz 134GHz 241GHz
04/09 07:00 14.8 63 7.98 7.8 17 22 1016.1 0 18.2 24.7 37.0 96.9 89.4 307.0
04/09 06:50 14.6 64 8.01 7.9 17 24 1016.2 0 18.3 24.8 37.2 97.5 90.0 309.1
04/09 06:40 14.7 63 7.93 7.7 17 20 1016 0 18.1 24.7 36.8 96.5 88.8 305.1
04/09 06:30 14.7 62 7.81 7.5 17 22 1016.1 0 17.9 24.5 36.4 95.3 87.3 299.8
04/09 06:20 15 61 7.82 7.5 17 20 1016.4 0 17.9 24.4 36.3 95.1 87.1 299.2
04/09 06:10 14.9 61 7.77 7.5 17 22 1016.3 0 17.8 24.4 36.1 94.7 86.6 297.3
04/09 06:00 14.8 61 7.73 7.4 17 24 1016.1 0 17.7 24.3 36.0 94.4 86.2 295.9
04/09 05:50 15 60 7.69 7.3 17 24 1016.3 0 17.6 24.2 35.8 93.7 85.5 293.4
04/09 05:40 15.1 60 7.74 7.4 17 24 1016.5 0 17.7 24.3 36.0 94.2 86.0 295.3
04/09 05:30 15.1 61 7.87 7.6 15 20 1016.3 0 18.0 24.5 36.4 95.5 87.6 301.0
04/09 05:20 15.1 62 8 7.9 15 20 1016.4 0 18.2 24.7 36.9 96.8 89.3 306.8
04/09 05:10 15.2 61 7.92 7.7 17 22 1016.2 0 18.1 24.5 36.6 95.8 88.2 302.8
04/09 05:00 15.3 60 7.84 7.6 17 22 1015.8 0 17.9 24.4 36.2 94.9 87.0 298.8
04/09 04:50 15.6 58 7.71 7.4 19 26 1015.7 0 17.6 24.1 35.6 93.2 85.0 291.9
04/09 04:40 15.7 56 7.49 7 20 28 1015.6 0 17.1 23.7 34.7 90.8 82.2 282.0
04/09 04:30 15.9 54 7.31 6.6 20 26 1015.7 0 16.7 23.4 34.0 88.8 79.8 273.5
04/09 04:20 15.7 55 7.36 6.7 22 32 1015.7 0 16.9 23.5 34.2 89.6 80.6 276.4
04/09 04:10 15.2 60 7.79 7.5 22 30 1015.1 0 17.8 24.3 36.0 94.4 86.4 296.8
04/09 04:00 14.6 65 8.13 8.1 26 35 1015.6 0 18.5 25.0 37.7 98.7 91.5 314.4
04/09 03:50 14.9 65 8.28 8.4 9 32 1016.8 0 18.9 25.2 38.1 100.0 93.2 320.2
04/09 03:40 14.8 61 7.73 7.4 2 6 1018.4 0 17.7 24.4 36.1 94.6 86.4 296.4
04/09 03:30 14.9 60 7.65 7.2 9 17 1018.9 0 17.5 24.3 35.8 93.7 85.3 292.6
04/09 03:20 15.1 59 7.61 7.2 11 19 1019.2 0 17.4 24.2 35.6 93.1 84.6 290.2
04/09 03:10 15.3 55 7.18 6.3 9 17 1018.8 0 16.5 23.5 33.8 88.5 79.0 270.7
04/09 03:00 15.6 52 6.92 5.8 13 19 1018.5 0 15.9 23.0 32.7 85.6 75.5 258.4
04/09 02:50 15.7 51 6.82 5.6 9 11 1018.1 0 15.7 22.8 32.3 84.4 74.2 253.8
04/09 02:40 16.4 48 6.7 5.4 11 11 1017.6 0 15.4 22.4 31.6 82.5 72.1 246.5
04/09 02:30 16.4 47 6.56 5.1 15 20 1017.6 0 15.1 22.2 31.1 81.2 70.4 240.6
04/09 02:20 16.4 47 6.56 5.1 15 20 1017.8 0 15.1 22.2 31.1 81.2 70.4 240.7
04/09 02:10 16.3 47 6.52 5 15 22 1017.8 0 15.1 22.2 31.0 80.9 70.0 239.3
04/09 02:00 16.4 47 6.56 5.1 17 22 1017.8 0 15.1 22.2 31.1 81.2 70.4 240.7
04/09 01:50 16.2 49 6.76 5.5 20 22 1018 0 15.6 22.6 31.9 83.3 73.0 249.7
04/09 01:40 16 50 6.81 5.6 17 22 1018.1 0 15.7 22.7 32.2 84.0 73.8 252.4
04/09 01:30 16 50 6.81 5.6 17 20 1018.1 0 15.7 22.7 32.2 84.0 73.8 252.4
04/09 01:20 16.1 50 6.85 5.7 17 19 1018.3 0 15.8 22.8 32.3 84.3 74.2 253.8
04/09 01:10 15.7 52 6.96 5.9 13 17 1018.4 0 16.0 23.0 32.8 85.8 75.9 259.8
04/09 01:00 15.9 51 6.91 5.8 11 15 1018.5 0 15.9 22.9 32.6 85.1 75.1 257.1
04/09 00:50 16.1 50 6.85 5.7 9 13 1018.9 0 15.8 22.8 32.3 84.4 74.2 254.0
04/09 00:40 16.5 49 6.88 5.8 11 15 1019.1 0 15.8 22.7 32.3 84.3 74.2 254.0
04/09 00:30 16.6 48 6.78 5.6 15 20 1018.8 0 15.6 22.5 31.9 83.2 72.9 249.5
04/09 00:20 16.9 47 6.76 5.5 17 20 1018.7 0 15.5 22.4 31.7 82.7 72.4 247.7
04/09 00:10 17.2 47 6.88 5.8 17 20 1018.9 0 15.8 22.5 32.0 83.5 73.6 251.8
04/09 00:00 17.2 47 6.88 5.8 17 20 1018.8 0 15.8 22.5 32.0 83.5 73.6 251.8
03/09 23:50 17.4 47 6.96 6 17 24 1018.5 0 15.9 22.6 32.2 84.1 74.3 254.4
03/09 23:40 17.7 46 6.94 5.9 15 20 1019.4 0 15.9 22.5 32.0 83.6 73.8 252.8
03/09 23:30 17.8 47 7.13 6.3 15 20 1019.6 0 16.3 22.8 32.7 85.4 76.0 260.5
03/09 23:20 17.8 47 7.13 6.3 17 22 1019.8 0 16.3 22.8 32.7 85.4 76.0 260.5
03/09 23:10 17.9 48 7.33 6.7 17 20 1019.8 0 16.7 23.1 33.4 87.2 78.3 268.6
03/09 23:00 17.9 49 7.48 7 15 20 1019.9 0 17.0 23.3 33.9 88.7 80.1 274.9
03/09 22:50 18 48 7.37 6.8 17 19 1020.1 0 16.8 23.1 33.5 87.5 78.7 270.0
03/09 22:40 18.1 48 7.42 6.9 15 19 1020.3 0 16.9 23.2 33.6 87.9 79.2 271.8
03/09 22:30 18.1 49 7.57 7.2 15 19 1020.4 0 17.2 23.4 34.2 89.4 81.0 278.1
03/09 22:20 18 49 7.53 7.1 13 19 1020.3 0 17.1 23.3 34.1 89.1 80.7 276.8
03/09 22:10 18.2 48 7.46 7 13 19 1020.4 0 17.0 23.2 33.7 88.2 79.6 273.2
03/09 22:00 18.3 48 7.5 7.1 15 19 1020.4 0 17.0 23.2 33.8 88.5 80.0 274.5
03/09 21:50 18.3 48 7.5 7.1 15 20 1020.5 0 17.0 23.2 33.8 88.5 80.0 274.5
03/09 21:40 18.5 47 7.44 7 15 20 1020.6 0 16.9 23.1 33.5 87.7 79.1 271.4
03/09 21:30 18.4 47 7.39 6.9 15 20 1020.5 0 16.8 23.0 33.4 87.3 78.6 269.6
03/09 21:20 18.5 47 7.44 7 15 20 1020.5 0 16.9 23.1 33.5 87.7 79.1 271.3
03/09 21:10 18.5 47 7.44 7 15 20 1020.4 0 16.9 23.1 33.5 87.7 79.1 271.3
03/09 21:00 18.6 46 7.32 6.8 15 20 1020.4 0 16.7 22.9 33.1 86.4 77.6 266.0
03/09 20:50 18.8 46 7.41 6.9 13 17 1020.4 0 16.8 23.0 33.3 87.1 78.4 269.1
03/09 20:40 18.9 46 7.45 7 15 20 1020.3 0 16.9 23.0 33.4 87.3 78.8 270.4
03/09 20:30 18.9 46 7.45 7 17 20 1020.2 0 16.9 23.0 33.4 87.3 78.8 270.3
03/09 20:20 18.2 49 7.62 7.3 9 19 1020.1 0 17.3 23.4 34.3 89.7 81.5 279.8
03/09 20:10 17.8 52 7.89 7.8 7 7 1020 0 17.9 23.9 35.5 92.8 85.2 292.7
03/09 20:00 17.8 52 7.89 7.8 7 9 1019.9 0 17.9 23.9 35.5 92.8 85.2 292.7
03/09 19:50 18 50 7.68 7.4 7 9 1019.8 0 17.4 23.6 34.6 90.5 82.4 283.0
03/09 19:40 18 51 7.83 7.7 7 9 1019.7 0 17.8 23.8 35.1 92.0 84.2 289.4
03/09 19:30 18.2 51 7.93 7.9 7 9 1019.7 0 18.0 23.9 35.4 92.8 85.2 292.9
03/09 19:20 18.2 50 7.77 7.6 7 9 1019.6 0 17.6 23.6 34.8 91.2 83.3 286.1
03/09 19:10 18.4 49 7.71 7.5 7 9 1019.4 0 17.5 23.5 34.5 90.3 82.3 282.8
03/09 19:00 18.7 47 7.52 7.2 9 9 1019.4 0 17.1 23.1 33.7 88.2 79.8 273.8
03/09 18:50 18.9 46 7.45 7 9 9 1019.3 0 16.9 23.0 33.4 87.3 78.7 270.1
03/09 18:40 19.4 47 7.84 7.8 7 9 1019.2 0 17.7 23.4 34.6 90.5 82.9 284.7
03/09 18:30 20 43 7.43 7.1 9 9 1019 0 16.8 22.7 32.8 85.9 77.4 265.6
03/09 18:20 20.3 43 7.56 7.3 7 9 1019 0 17.1 22.8 33.2 86.8 78.6 270.0
03/09 18:10 20.9 40 7.28 6.8 9 13 1018.8 0 16.5 22.2 32.0 83.5 74.8 256.6
03/09 18:00 21.4 38 7.12 6.5 13 19 1018.7 0 16.1 21.9 31.2 81.5 72.5 248.6
03/09 17:50 22.1 36 7.03 6.3 11 15 1018.6 0 15.9 21.6 30.6 80.0 70.9 242.9
03/09 17:40 22.6 35 7.03 6.4 11 15 1018.5 0 15.9 21.5 30.4 79.5 70.4 241.5
03/09 17:30 22.8 35 7.11 6.6 13 17 1018.4 0 16.0 21.5 30.6 80.0 71.1 244.0
03/09 17:20 23 34 6.99 6.3 15 19 1018.6 0 15.8 21.3 30.2 78.8 69.6 238.8
03/09 17:10 23.3 34 7.11 6.6 11 17 1018.6 0 16.0 21.4 30.5 79.6 70.7 242.5
03/09 17:00 23.4 34 7.15 6.7 11 17 1018.6 0 16.1 21.4 30.6 79.8 71.1 243.8
03/09 16:50 23.6 33 7.02 6.4 7 13 1018.8 0 15.8 21.2 30.1 78.5 69.5 238.2
03/09 16:40 23.4 33 6.94 6.2 9 17 1018.8 0 15.7 21.2 29.9 78.0 68.8 235.7
03/09 16:30 23.6 33 7.02 6.4 13 20 1018.7 0 15.8 21.2 30.1 78.5 69.5 238.2
03/09 16:20 23.7 33 7.06 6.5 11 19 1018.8 0 15.9 21.3 30.2 78.7 69.8 239.5
03/09 16:10 23.5 32 6.77 5.9 13 15 1018.9 0 15.3 20.9 29.3 76.4 66.8 228.9
03/09 16:00 23.6 32 6.81 6 13 22 1018.7 0 15.4 20.9 29.4 76.6 67.2 230.1
03/09 15:50 23.7 33 7.06 6.5 13 17 1018.8 0 15.9 21.3 30.2 78.7 69.8 239.5
03/09 15:40 23.6 33 7.02 6.4 9 24 1018.8 0 15.8 21.2 30.1 78.5 69.5 238.2
03/09 15:30 23.3 33 6.9 6.1 6 17 1018.8 0 15.6 21.1 29.8 77.7 68.4 234.5
03/09 15:20 23.5 34 7.19 6.7 11 24 1019 0 16.2 21.5 30.7 80.1 71.4 245.1
03/09 15:10 23 34 6.99 6.3 13 19 1019.1 0 15.8 21.3 30.2 78.8 69.7 238.9
03/09 15:00 23.4 34 7.15 6.7 17 26 1019 0 16.1 21.5 30.6 79.9 71.1 243.9
03/09 14:50 23.5 34 7.19 6.7 13 26 1019.1 0 16.2 21.5 30.7 80.1 71.5 245.2
03/09 14:40 23 36 7.4 7.1 9 24 1019.3 0 16.6 21.9 31.6 82.5 74.3 254.9
03/09 14:30 22.9 35 7.15 6.6 15 24 1019.5 0 16.1 21.6 30.8 80.4 71.6 245.5

Last Refresh: 04-Sep-2026 07:13:24

Bureau of Meteorology